Time;durP1;ratioP1;P1;durP2;ratioP2;P2;SDS_P1;SDS_P2;PMS_P1;PMS_P2;Temp;Humidity;BMP_temperature;BMP_pressure;BME280_temperature;BME280_humidity;BME280_pressure;Samples;Min_cycle;Max_cycle;Signal;HPM_P1;HPM_P2
2022/04/08 00:00:17;;;;;;;8.52;1.38;;;5.90;99.90;;;;;;5072825;28;21280;-73
2022/04/08 00:02:43;;;;;;;8.73;1.30;;;5.90;99.90;;;;;;5071655;28;20051;-73
2022/04/08 00:05:09;;;;;;;6.07;1.10;;;5.90;99.90;;;;;;5090617;28;20050;-73
2022/04/08 00:07:35;;;;;;;6.78;0.95;;;5.90;99.90;;;;;;5086442;28;20035;-73
2022/04/08 00:10:01;;;;;;;8.00;1.67;;;6.00;99.90;;;;;;5091122;28;20036;-73
2022/04/08 00:12:27;;;;;;;9.48;2.00;;;6.10;99.90;;;;;;5090702;28;20438;-73
2022/04/08 00:14:53;;;;;;;7.47;1.35;;;6.00;99.90;;;;;;5086130;28;20492;-73
2022/04/08 00:17:18;;;;;;;4.78;1.20;;;6.10;99.90;;;;;;5091225;28;20036;-73
2022/04/08 00:19:44;;;;;;;8.73;2.05;;;6.10;99.90;;;;;;5091105;28;20039;-73
2022/04/08 00:22:10;;;;;;;7.00;1.73;;;6.00;99.90;;;;;;5086110;28;20046;-73
2022/04/08 00:24:35;;;;;;;7.53;1.17;;;6.00;99.90;;;;;;5085625;28;20051;-73
2022/04/08 00:27:01;;;;;;;6.43;1.38;;;6.00;99.90;;;;;;5087755;28;20037;-73
2022/04/08 00:29:26;;;;;;;4.85;0.90;;;6.00;99.90;;;;;;5064560;28;20028;-73
2022/04/08 00:31:57;;;;;;;4.68;1.00;;;5.90;99.90;;;;;;5089144;28;20028;-73
2022/04/08 00:34:24;;;;;;;7.30;1.17;;;5.80;99.90;;;;;;5085927;28;20040;-73
2022/04/08 00:36:50;;;;;;;7.22;1.20;;;5.80;99.90;;;;;;5084330;28;20048;-73
2022/04/08 00:39:16;;;;;;;4.55;1.02;;;5.70;99.90;;;;;;5098905;28;20117;-73
2022/04/08 00:41:41;;;;;;;5.03;0.80;;;5.70;99.90;;;;;;5090778;28;20621;-73
2022/04/08 00:44:07;;;;;;;3.15;0.93;;;5.70;99.90;;;;;;5091128;28;20040;-73
2022/04/08 00:46:33;;;;;;;5.07;0.50;;;5.70;99.90;;;;;;5090536;28;20036;-73
2022/04/08 00:48:58;;;;;;;1.58;0.32;;;5.70;99.90;;;;;;5066722;28;20073;-74
2022/04/08 00:51:25;;;;;;;3.28;0.60;;;5.50;99.90;;;;;;5079510;28;20040;-73
2022/04/08 00:53:51;;;;;;;2.17;0.50;;;5.60;99.90;;;;;;5089213;28;20508;-73
2022/04/08 00:56:19;;;;;;;4.03;0.40;;;5.60;99.90;;;;;;5090697;28;20044;-73
2022/04/08 00:58:44;;;;;;;2.83;0.85;;;5.50;99.90;;;;;;5086269;28;20028;-73
2022/04/08 01:01:10;;;;;;;3.17;0.63;;;5.40;99.90;;;;;;5077359;28;20122;-73
2022/04/08 01:03:35;;;;;;;0.82;0.40;;;5.30;99.90;;;;;;5084013;28;20477;-73
2022/04/08 01:06:01;;;;;;;1.95;0.60;;;5.30;99.90;;;;;;5090620;28;20481;-73
2022/04/08 01:08:28;;;;;;;4.22;0.60;;;5.20;99.90;;;;;;5084697;28;20048;-73
2022/04/08 01:10:54;;;;;;;2.63;0.82;;;5.20;99.90;;;;;;5072020;28;20374;-73
2022/04/08 01:13:20;;;;;;;3.47;0.73;;;5.20;99.90;;;;;;5089840;28;20048;-73
2022/04/08 01:15:46;;;;;;;3.83;0.80;;;5.10;99.90;;;;;;5086463;28;20043;-73
2022/04/08 01:18:11;;;;;;;3.92;0.70;;;5.10;99.90;;;;;;5082946;28;20032;-73
2022/04/08 01:20:37;;;;;;;2.85;1.00;;;5.10;99.90;;;;;;5083865;28;20036;-73
2022/04/08 01:23:04;;;;;;;3.85;0.70;;;5.10;99.90;;;;;;5060128;28;20145;-73
2022/04/08 01:25:30;;;;;;;3.63;0.70;;;5.00;99.90;;;;;;5083772;28;20040;-73
2022/04/08 01:27:55;;;;;;;4.25;0.85;;;5.10;99.90;;;;;;5071752;28;20028;-73
2022/04/08 01:30:21;;;;;;;3.50;0.85;;;4.90;99.90;;;;;;5081013;28;20027;-73
2022/04/08 01:32:46;;;;;;;6.60;1.30;;;5.00;99.90;;;;;;5087220;28;20048;-73
2022/04/08 01:35:13;;;;;;;2.65;0.80;;;4.80;99.90;;;;;;5089955;28;20123;-73
2022/04/08 01:37:39;;;;;;;6.32;1.20;;;4.70;99.90;;;;;;5089603;28;20512;-73
2022/04/08 01:40:05;;;;;;;5.18;1.23;;;4.60;99.90;;;;;;5072598;28;20040;-73
2022/04/08 01:42:30;;;;;;;4.78;1.08;;;4.70;99.90;;;;;;5088311;28;20691;-73
2022/04/08 01:44:56;;;;;;;6.72;1.50;;;4.60;99.90;;;;;;5087801;28;20040;-73
2022/04/08 01:47:22;;;;;;;4.70;1.10;;;4.50;99.90;;;;;;5085432;28;20115;-73
2022/04/08 01:49:48;;;;;;;7.63;1.00;;;4.50;99.90;;;;;;5084243;28;20035;-73
2022/04/08 01:52:13;;;;;;;4.90;0.93;;;4.50;99.90;;;;;;5080823;28;20040;-73
2022/04/08 01:54:39;;;;;;;5.28;1.30;;;4.50;99.90;;;;;;5076842;28;20040;-73
2022/04/08 01:57:05;;;;;;;6.50;1.40;;;4.50;99.90;;;;;;5073429;28;20041;-73
2022/04/08 01:59:30;;;;;;;6.72;1.08;;;4.50;99.90;;;;;;5080645;28;20122;-73
2022/04/08 02:01:59;;;;;;;7.07;1.40;;;4.50;99.90;;;;;;5087136;28;20032;-73
2022/04/08 02:04:25;;;;;;;5.65;1.33;;;4.50;99.90;;;;;;5089126;28;20043;-73
2022/04/08 02:06:51;;;;;;;4.10;0.90;;;4.50;99.90;;;;;;5089356;28;20674;-73
2022/04/08 02:09:16;;;;;;;4.00;1.10;;;4.60;99.90;;;;;;5071390;28;20048;-73
2022/04/08 02:11:43;;;;;;;7.22;1.00;;;4.50;99.90;;;;;;5091596;28;20378;-73
2022/04/08 02:14:08;;;;;;;5.25;1.10;;;4.50;99.90;;;;;;5093696;28;20102;-73
2022/04/08 02:16:34;;;;;;;6.72;1.20;;;4.50;99.90;;;;;;5087873;28;20040;-73
2022/04/08 02:18:59;;;;;;;4.75;1.10;;;4.40;99.90;;;;;;5093904;28;20036;-73
2022/04/08 02:21:25;;;;;;;6.03;1.35;;;4.40;99.90;;;;;;5087023;28;20507;-73
2022/04/08 02:23:54;;;;;;;3.45;0.88;;;4.40;99.90;;;;;;5076530;28;20072;-73
2022/04/08 02:26:20;;;;;;;7.22;1.15;;;4.30;99.90;;;;;;5092182;28;20067;-73
2022/04/08 02:28:45;;;;;;;4.95;1.38;;;4.30;99.90;;;;;;5088893;28;20076;-73
2022/04/08 02:31:12;;;;;;;7.15;1.27;;;4.30;99.90;;;;;;5084559;28;20045;-73
2022/04/08 02:33:38;;;;;;;6.78;0.95;;;4.30;99.90;;;;;;5071264;28;20113;-73
2022/04/08 02:36:04;;;;;;;8.13;1.45;;;4.30;99.90;;;;;;5092906;28;20048;-73
2022/04/08 02:38:30;;;;;;;4.20;1.27;;;4.30;99.90;;;;;;5092533;28;20123;-73
2022/04/08 02:40:56;;;;;;;3.60;1.08;;;4.30;99.90;;;;;;5083249;28;20128;-73
2022/04/08 02:43:22;;;;;;;7.18;1.35;;;4.40;99.90;;;;;;5075151;28;20089;-73
2022/04/08 02:45:48;;;;;;;6.80;1.40;;;4.50;99.90;;;;;;5085371;28;20036;-73
2022/04/08 02:48:14;;;;;;;4.00;1.08;;;4.40;99.90;;;;;;5073816;28;20154;-73
2022/04/08 02:50:40;;;;;;;6.45;1.30;;;4.40;99.90;;;;;;5083736;28;20047;-73
2022/04/08 02:53:06;;;;;;;5.30;1.10;;;4.40;99.90;;;;;;5100390;28;20048;-73
2022/04/08 02:55:31;;;;;;;5.78;1.13;;;4.30;99.90;;;;;;5088345;28;20040;-73
2022/04/08 02:57:57;;;;;;;5.40;1.02;;;4.30;99.90;;;;;;5094035;28;20056;-73
2022/04/08 03:00:23;;;;;;;6.47;1.30;;;4.20;99.90;;;;;;5087990;28;20036;-73
2022/04/08 03:02:48;;;;;;;5.50;1.17;;;4.10;99.90;;;;;;5095244;28;20043;-74
2022/04/08 03:05:15;;;;;;;5.05;1.00;;;4.20;99.90;;;;;;5084195;28;20040;-73
2022/04/08 03:07:41;;;;;;;4.18;1.10;;;4.20;99.90;;;;;;5088948;28;20069;-73
2022/04/08 03:10:09;;;;;;;3.85;0.85;;;4.10;99.90;;;;;;5092647;28;20082;-73
2022/04/08 03:12:35;;;;;;;7.10;1.50;;;4.20;99.90;;;;;;5091141;28;20576;-73
2022/04/08 03:15:01;;;;;;;9.25;1.48;;;4.10;99.90;;;;;;5091339;28;20044;-73
2022/04/08 03:17:26;;;;;;;6.03;1.30;;;4.10;99.90;;;;;;5088302;28;20478;-74
2022/04/08 03:19:53;;;;;;;6.00;1.08;;;4.00;99.90;;;;;;5091388;28;20134;-73
2022/04/08 03:22:20;;;;;;;4.30;1.17;;;3.90;99.90;;;;;;5104759;28;20122;-74
2022/04/08 03:24:47;;;;;;;8.05;1.42;;;3.80;99.90;;;;;;5083010;28;20554;-74
2022/04/08 03:27:13;;;;;;;4.93;1.00;;;3.80;99.90;;;;;;5090984;28;20421;-74
2022/04/08 03:29:38;;;;;;;8.35;1.60;;;3.70;99.90;;;;;;5088422;28;20040;-74
2022/04/08 03:32:05;;;;;;;8.20;2.15;;;3.70;99.90;;;;;;5089430;28;20044;-74
2022/04/08 03:34:31;;;;;;;4.35;1.50;;;3.60;99.90;;;;;;5072337;28;20039;-74
2022/04/08 03:36:57;;;;;;;6.10;0.95;;;3.60;99.90;;;;;;5097584;28;20039;-74
2022/04/08 03:39:22;;;;;;;8.43;1.67;;;3.50;99.90;;;;;;5091734;28;20127;-74
2022/04/08 03:41:48;;;;;;;7.57;1.70;;;3.40;99.90;;;;;;5083802;28;20043;-74
2022/04/08 03:44:14;;;;;;;8.85;1.63;;;3.40;99.90;;;;;;5080911;28;20054;-74
2022/04/08 03:46:41;;;;;;;8.15;1.40;;;3.30;99.90;;;;;;5093243;28;20378;-74
2022/04/08 03:49:14;;;;;;;6.20;1.25;;;3.30;99.90;;;;;;5083362;28;20136;-74
2022/04/08 03:51:46;;;;;;;7.03;1.67;;;3.30;99.90;;;;;;5096218;28;20492;-74
2022/04/08 03:54:12;;;;;;;;;;;3.30;99.90;;;;;;5092270;28;20036;-74
2022/04/08 03:56:41;;;;;;;7.95;1.45;;;3.20;99.90;;;;;;5093201;28;19924;-74
2022/04/08 03:59:07;;;;;;;7.00;1.95;;;3.20;99.90;;;;;;5090450;28;20047;-74
2022/04/08 04:01:33;;;;;;;8.23;1.80;;;3.20;99.90;;;;;;5073856;28;20036;-74
2022/04/08 04:03:59;;;;;;;12.60;1.67;;;3.20;99.90;;;;;;5099063;28;20109;-74
2022/04/08 04:06:24;;;;;;;10.13;1.95;;;3.30;99.90;;;;;;5084358;28;20622;-74
2022/04/08 04:08:50;;;;;;;7.28;1.20;;;3.50;99.90;;;;;;5081199;28;20044;-74
2022/04/08 04:11:16;;;;;;;5.82;0.90;;;3.70;99.90;;;;;;5085260;28;20040;-74
2022/04/08 04:13:42;;;;;;;3.35;0.88;;;4.00;99.90;;;;;;5098105;28;20044;-74
2022/04/08 04:16:08;;;;;;;3.17;0.80;;;4.10;99.90;;;;;;5067948;28;20359;-73
2022/04/08 04:18:34;;;;;;;5.45;0.90;;;4.10;99.90;;;;;;5090898;28;20085;-73
2022/04/08 04:20:59;;;;;;;5.15;1.30;;;4.10;99.90;;;;;;5091554;28;20113;-73
2022/04/08 04:23:25;;;;;;;3.20;1.15;;;4.00;99.90;;;;;;5078685;28;20473;-74
2022/04/08 04:25:51;;;;;;;2.58;1.08;;;4.00;99.90;;;;;;5094157;28;20194;-74
2022/04/08 04:28:16;;;;;;;1.95;0.70;;;3.90;99.90;;;;;;5091597;28;20035;-74
2022/04/08 04:30:42;;;;;;;4.82;1.27;;;3.90;99.90;;;;;;5076419;28;20048;-74
2022/04/08 04:33:08;;;;;;;4.28;1.17;;;3.90;99.90;;;;;;5084124;28;20381;-74
2022/04/08 04:35:37;;;;;;;3.03;1.00;;;3.70;99.90;;;;;;5072144;28;20487;-74
2022/04/08 04:38:03;;;;;;;3.25;1.20;;;3.70;99.90;;;;;;5097029;28;20052;-74
2022/04/08 04:40:29;;;;;;;2.33;0.82;;;3.70;99.90;;;;;;5095138;28;20083;-74
2022/04/08 04:42:55;;;;;;;2.33;0.95;;;3.60;99.90;;;;;;5099874;28;20040;-74
2022/04/08 04:45:21;;;;;;;1.27;0.80;;;3.60;99.90;;;;;;5072832;28;20644;-74
2022/04/08 04:47:47;;;;;;;4.25;1.30;;;3.60;99.90;;;;;;5070405;28;20058;-74
2022/04/08 04:50:13;;;;;;;3.03;1.05;;;3.50;99.90;;;;;;5086067;28;20044;-74
2022/04/08 04:52:38;;;;;;;6.68;1.13;;;3.50;99.90;;;;;;5081267;28;20037;-74
2022/04/08 04:55:05;;;;;;;2.20;0.90;;;3.50;99.90;;;;;;5079474;28;20109;-74
2022/04/08 04:57:30;;;;;;;2.90;0.95;;;3.40;99.90;;;;;;5092502;28;20567;-74
2022/04/08 04:59:56;;;;;;;3.08;0.80;;;3.30;99.90;;;;;;5076265;28;20119;-74
2022/04/08 05:02:22;;;;;;;4.30;1.20;;;3.20;99.90;;;;;;5087820;28;20404;-74
2022/04/08 05:04:47;;;;;;;3.42;0.75;;;3.30;99.90;;;;;;5081326;28;20055;-74
2022/04/08 05:07:13;;;;;;;3.67;1.08;;;3.30;99.90;;;;;;5078241;28;20041;-74
2022/04/08 05:09:40;;;;;;;2.05;0.82;;;3.20;99.90;;;;;;5058783;28;22443;-73
2022/04/08 05:12:07;;;;;;;3.22;1.13;;;3.30;99.90;;;;;;5079033;28;20481;-73
2022/04/08 05:14:32;;;;;;;3.25;1.05;;;3.30;99.90;;;;;;5075803;28;20040;-74
2022/04/08 05:16:58;;;;;;;1.88;1.00;;;3.30;99.90;;;;;;5071952;28;20044;-74
2022/04/08 05:19:24;;;;;;;4.32;1.27;;;3.30;99.90;;;;;;5075807;28;20126;-73
2022/04/08 05:21:51;;;;;;;3.38;1.33;;;3.50;99.90;;;;;;5065019;28;20054;-73
2022/04/08 05:24:16;;;;;;;2.28;0.85;;;3.50;99.90;;;;;;5077853;28;20490;-73
2022/04/08 05:26:42;;;;;;;3.78;1.27;;;3.70;99.90;;;;;;5072658;28;20073;-74
2022/04/08 05:29:08;;;;;;;2.60;1.08;;;3.70;99.90;;;;;;5075073;28;20044;-74
2022/04/08 05:31:33;;;;;;;2.38;0.98;;;3.80;99.90;;;;;;5076790;28;20047;-74
2022/04/08 05:33:59;;;;;;;2.95;1.30;;;3.90;99.90;;;;;;5074658;28;20040;-74
2022/04/08 05:36:24;;;;;;;5.05;1.50;;;4.10;99.90;;;;;;5074439;28;20043;-74
2022/04/08 05:38:50;;;;;;;2.47;1.05;;;4.20;99.90;;;;;;5089129;28;20049;-74
2022/04/08 05:41:15;;;;;;;5.88;1.10;;;4.40;99.90;;;;;;5070042;28;21192;-74
2022/04/08 05:43:44;;;;;;;4.05;1.40;;;4.60;99.90;;;;;;5056964;28;20951;-74
2022/04/08 05:46:10;;;;;;;3.10;1.00;;;4.90;99.90;;;;;;5073313;28;20655;-74
2022/04/08 05:48:36;;;;;;;2.60;1.23;;;4.90;99.90;;;;;;5075528;28;20036;-74
2022/04/08 05:51:01;;;;;;;3.05;1.05;;;5.10;99.90;;;;;;5072266;28;20032;-74
2022/04/08 05:53:27;;;;;;;7.82;1.60;;;5.10;99.90;;;;;;5074049;28;20391;-74
2022/04/08 05:55:55;;;;;;;7.50;1.35;;;5.00;99.90;;;;;;5060009;28;20041;-74
2022/04/08 05:58:21;;;;;;;5.30;1.40;;;5.00;99.90;;;;;;5066806;28;20044;-74
2022/04/08 06:00:47;;;;;;;6.32;1.50;;;5.00;99.90;;;;;;5090032;28;20560;-74
2022/04/08 06:03:12;;;;;;;4.63;1.20;;;5.80;99.90;;;;;;5060413;28;20185;-74
2022/04/08 06:05:38;;;;;;;5.53;1.35;;;7.00;99.90;;;;;;5089465;28;20469;-74
2022/04/08 06:08:04;;;;;;;5.32;1.30;;;8.20;99.90;;;;;;5087901;28;20035;-74
2022/04/08 06:10:30;;;;;;;5.70;1.08;;;9.20;99.90;;;;;;5089588;28;20672;-74
2022/04/08 06:12:56;;;;;;;4.55;1.23;;;10.10;99.90;;;;;;5089050;28;20039;-74
2022/04/08 06:15:21;;;;;;;4.82;1.40;;;10.80;99.90;;;;;;5083745;28;20063;-74
2022/04/08 06:17:47;;;;;;;2.95;1.40;;;11.40;99.90;;;;;;5087282;28;20039;-74
2022/04/08 06:20:17;;;;;;;3.75;1.10;;;12.00;99.90;;;;;;5089735;28;20036;-75
2022/04/08 06:22:43;;;;;;;3.85;1.00;;;12.10;99.90;;;;;;5088387;28;20067;-74
2022/04/08 06:25:11;;;;;;;2.17;0.70;;;12.20;99.90;;;;;;5072865;28;20514;-74
2022/04/08 06:27:37;;;;;;;1.52;0.90;;;12.60;99.90;;;;;;5072671;28;20416;-74
2022/04/08 06:30:09;;;;;;;4.80;1.20;;;12.90;99.90;;;;;;5087750;28;20032;-74
2022/04/08 06:32:35;;;;;;;2.75;0.80;;;13.10;99.90;;;;;;5058282;28;20122;-75
2022/04/08 06:35:00;;;;;;;1.00;0.80;;;13.40;97.80;;;;;;5081523;28;20482;-75
2022/04/08 06:37:29;;;;;;;4.20;0.77;;;13.70;99.40;;;;;;5067946;28;20390;-75
2022/04/08 06:39:55;;;;;;;3.13;1.38;;;13.80;95.60;;;;;;5084814;28;20130;-74
2022/04/08 06:42:24;;;;;;;4.45;2.25;;;13.90;96.30;;;;;;5088559;28;20036;-75
2022/04/08 06:44:50;;;;;;;3.10;0.85;;;14.10;96.20;;;;;;5088330;28;20032;-74
2022/04/08 06:47:15;;;;;;;2.55;0.90;;;14.20;95.20;;;;;;5087648;28;20048;-75
2022/04/08 06:49:44;;;;;;;2.35;1.08;;;13.80;96.10;;;;;;5089059;28;20047;-75
2022/04/08 06:52:11;;;;;;;2.47;1.00;;;13.00;98.20;;;;;;5088492;28;20042;-75
2022/04/08 06:54:37;;;;;;;2.80;0.70;;;13.20;98.50;;;;;;5070479;28;20040;-75
2022/04/08 06:57:03;;;;;;;3.15;1.00;;;13.60;97.10;;;;;;5083204;28;20379;-75
2022/04/08 06:59:28;;;;;;;2.88;1.10;;;13.80;97.80;;;;;;5095320;28;20031;-74
2022/04/08 07:01:54;;;;;;;3.13;1.00;;;14.40;96.40;;;;;;5090957;28;20054;-75
2022/04/08 07:04:19;;;;;;;3.85;1.20;;;14.80;94.10;;;;;;5074125;28;20047;-75
2022/04/08 07:06:45;;;;;;;3.72;1.17;;;14.90;94.10;;;;;;5089386;28;20038;-75
2022/04/08 07:09:11;;;;;;;3.35;0.90;;;15.00;92.40;;;;;;5085516;28;20119;-75
2022/04/08 07:11:36;;;;;;;6.72;0.95;;;15.40;90.60;;;;;;5080372;28;20041;-75
2022/04/08 07:14:02;;;;;;;2.78;0.80;;;15.30;86.60;;;;;;5088285;28;20460;-75
2022/04/08 07:16:27;;;;;;;2.63;0.90;;;15.60;91.60;;;;;;5090170;28;20036;-75
2022/04/08 07:18:53;;;;;;;4.13;0.75;;;15.90;90.50;;;;;;5078144;28;20421;-75
2022/04/08 07:21:19;;;;;;;2.05;0.80;;;16.20;85.20;;;;;;5077460;28;20058;-75
2022/04/08 07:23:44;;;;;;;5.68;1.05;;;16.00;85.70;;;;;;5083863;28;20122;-75
2022/04/08 07:26:10;;;;;;;2.83;1.00;;;15.90;87.40;;;;;;5070983;28;20036;-75
2022/04/08 07:28:36;;;;;;;4.95;0.90;;;16.10;88.00;;;;;;5081604;28;20041;-75
2022/04/08 07:31:02;;;;;;;2.90;1.00;;;15.70;83.70;;;;;;5091209;28;20062;-74
2022/04/08 07:33:27;;;;;;;2.17;0.70;;;14.20;91.80;;;;;;5089556;28;20040;-74
2022/04/08 07:35:53;;;;;;;1.20;0.52;;;13.20;96.00;;;;;;5086456;28;20143;-75
2022/04/08 07:38:18;;;;;;;2.08;0.70;;;12.10;99.10;;;;;;5085184;28;21111;-74
2022/04/08 07:40:44;;;;;;;2.25;0.77;;;11.70;99.90;;;;;;5091853;28;20036;-74
2022/04/08 07:43:10;;;;;;;1.08;0.60;;;12.00;99.90;;;;;;5074434;28;20068;-74
2022/04/08 07:45:36;;;;;;;2.13;0.95;;;12.50;99.90;;;;;;5091687;28;20044;-74
2022/04/08 07:48:01;;;;;;;2.17;1.15;;;12.40;99.90;;;;;;5090655;28;20390;-74
2022/04/08 07:50:28;;;;;;;3.40;0.80;;;11.80;99.90;;;;;;5078049;28;20481;-74
2022/04/08 07:52:54;;;;;;;3.13;0.93;;;11.30;99.90;;;;;;5075172;28;20862;-74
2022/04/08 07:55:20;;;;;;;3.40;0.90;;;11.00;99.90;;;;;;5061565;28;20048;-74
2022/04/08 07:57:47;;;;;;;4.13;1.00;;;10.80;99.90;;;;;;5091468;28;20051;-74
2022/04/08 08:00:15;;;;;;;2.60;0.95;;;10.70;99.90;;;;;;5086948;28;20040;-74
2022/04/08 08:02:42;;;;;;;3.17;1.15;;;10.60;99.90;;;;;;5091809;28;20515;-74
2022/04/08 08:05:09;;;;;;;3.92;1.10;;;10.30;99.90;;;;;;5091745;28;20158;-74
2022/04/08 08:07:45;;;;;;;4.78;1.73;;;9.90;99.90;;;;;;5091119;28;20554;-74
2022/04/08 08:10:14;;;;;;;3.80;1.40;;;9.50;99.90;;;;;;5073551;28;20052;-74
2022/04/08 08:12:40;;;;;;;4.97;2.25;;;9.20;99.90;;;;;;5089128;28;20060;-74
2022/04/08 08:15:06;;;;;;;4.15;1.73;;;8.90;99.90;;;;;;5091615;28;20044;-74
2022/04/08 08:17:31;;;;;;;6.50;1.38;;;8.60;99.90;;;;;;5090602;28;20477;-74
2022/04/08 08:19:57;;;;;;;3.22;1.00;;;8.40;99.90;;;;;;5088630;28;20028;-74
2022/04/08 08:22:23;;;;;;;3.40;1.30;;;8.30;99.90;;;;;;5074017;28;20042;-74
2022/04/08 08:24:48;;;;;;;4.35;1.20;;;8.40;99.90;;;;;;5076696;28;20067;-74
2022/04/08 08:27:14;;;;;;;3.65;1.30;;;8.50;99.90;;;;;;5090242;28;20078;-74
2022/04/08 08:29:39;;;;;;;4.25;1.52;;;8.60;99.90;;;;;;5083487;28;20093;-74
2022/04/08 08:32:05;;;;;;;7.70;1.65;;;8.70;99.90;;;;;;5088699;28;20032;-74
2022/04/08 08:34:31;;;;;;;6.35;1.67;;;8.80;99.90;;;;;;5090015;28;20028;-74
2022/04/08 08:36:59;;;;;;;7.10;1.80;;;8.90;99.90;;;;;;5073475;28;20112;-74
2022/04/08 08:39:26;;;;;;;9.15;1.50;;;9.20;99.90;;;;;;5102212;28;20686;-74
2022/04/08 08:41:52;;;;;;;3.67;1.30;;;9.30;99.90;;;;;;5073241;28;20124;-74
2022/04/08 08:44:19;;;;;;;4.15;1.38;;;9.50;99.90;;;;;;5090212;28;20044;-74
2022/04/08 08:46:44;;;;;;;6.72;1.73;;;9.60;99.90;;;;;;5086600;28;20039;-74
2022/04/08 08:49:11;;;;;;;6.10;1.85;;;9.80;99.90;;;;;;5089855;28;20590;-74
2022/04/08 08:51:40;;;;;;;3.30;1.50;;;10.00;99.90;;;;;;5088048;28;20515;-74
2022/04/08 08:54:06;;;;;;;3.78;1.60;;;10.10;99.90;;;;;;5091154;28;20465;-74
2022/04/08 08:56:32;;;;;;;3.13;1.30;;;10.20;99.90;;;;;;5087029;28;20040;-74
2022/04/08 08:58:57;;;;;;;3.65;1.60;;;10.10;99.90;;;;;;5079677;28;20024;-74
2022/04/08 09:01:23;;;;;;;5.47;1.25;;;10.00;99.90;;;;;;5090247;28;20075;-74
2022/04/08 09:03:48;;;;;;;5.05;1.23;;;10.00;99.90;;;;;;5083834;28;20119;-74
2022/04/08 09:06:16;;;;;;;4.28;1.17;;;10.00;99.90;;;;;;5089611;28;20070;-73
2022/04/08 09:08:42;;;;;;;6.90;1.65;;;9.90;99.90;;;;;;5089774;28;20086;-74
2022/04/08 09:11:08;;;;;;;5.78;1.23;;;9.80;99.90;;;;;;5090600;28;20405;-74
2022/04/08 09:13:45;;;;;;;5.55;1.48;;;9.60;99.90;;;;;;5090594;28;20051;-75
2022/04/08 09:16:11;;;;;;;4.55;1.17;;;9.60;99.90;;;;;;5088985;28;20040;-74
2022/04/08 09:18:41;;;;;;;3.33;1.30;;;9.60;99.90;;;;;;5088897;28;20041;-74
2022/04/08 09:21:07;;;;;;;5.53;2.13;;;9.60;99.90;;;;;;5087125;28;20077;-74
2022/04/08 09:23:34;;;;;;;6.18;1.70;;;9.70;99.90;;;;;;5090168;28;20071;-74
2022/04/08 09:26:02;;;;;;;3.40;1.05;;;9.90;99.90;;;;;;5073566;28;20146;-75
2022/04/08 09:28:36;;;;;;;3.92;1.40;;;10.00;99.90;;;;;;5073404;28;20135;-74
2022/04/08 09:31:03;;;;;;;3.95;1.50;;;10.00;99.90;;;;;;5090567;28;20039;-75
2022/04/08 09:33:29;;;;;;;4.75;1.40;;;10.00;99.90;;;;;;5089961;28;20046;-75
2022/04/08 09:35:57;;;;;;;5.90;1.33;;;10.10;99.90;;;;;;5089522;28;20112;-75
2022/04/08 09:38:25;;;;;;;2.47;1.20;;;10.20;99.90;;;;;;5071416;28;20044;-75
2022/04/08 09:40:58;;;;;;;4.60;1.33;;;10.30;99.90;;;;;;5087998;28;20047;-75
2022/04/08 09:43:36;;;;;;;6.32;1.50;;;10.30;99.90;;;;;;5090386;28;20071;-75
2022/04/08 09:46:23;;;;;;;3.13;1.25;;;10.40;99.90;;;;;;5090092;28;20079;-75
2022/04/08 09:48:49;;;;;;;5.05;1.48;;;10.60;99.90;;;;;;5090539;28;20109;-75
2022/04/08 09:51:20;;;;;;;4.63;1.42;;;10.60;99.90;;;;;;5073161;28;20040;-74
2022/04/08 09:53:50;;;;;;;6.40;1.85;;;10.90;99.90;;;;;;5090074;28;20051;-75
2022/04/08 09:56:20;;;;;;;5.75;1.38;;;11.00;99.90;;;;;;5075784;28;20067;-75
2022/04/08 09:58:52;;;;;;;5.82;1.60;;;11.00;99.90;;;;;;5064116;28;20044;-75
2022/04/08 10:01:18;;;;;;;;;;;10.90;99.90;;;;;;5087308;28;20032;-75
2022/04/08 10:03:44;;;;;;;4.63;1.90;;;11.00;99.90;;;;;;5090083;28;19927;-75
2022/04/08 10:06:12;;;;;;;8.40;1.40;;;11.00;99.90;;;;;;5089711;28;20442;-75
2022/04/08 10:08:38;;;;;;;4.80;1.42;;;10.80;99.90;;;;;;5089991;28;20373;-75
2022/04/08 10:11:10;;;;;;;7.00;1.65;;;10.70;99.90;;;;;;5084514;28;20141;-75
2022/04/08 10:14:07;;;;;;;4.63;1.50;;;10.40;99.90;;;;;;5079026;28;20040;-75
2022/04/08 10:16:32;;;;;;;4.88;1.02;;;10.40;99.90;;;;;;5089505;28;20127;-75
2022/04/08 10:19:04;;;;;;;4.45;1.27;;;10.40;99.90;;;;;;5077258;28;20124;-75
2022/04/08 10:21:38;;;;;;;4.63;1.00;;;10.30;99.90;;;;;;5059078;28;20126;-75
2022/04/08 10:24:10;;;;;;;3.38;1.17;;;10.50;99.90;;;;;;5089650;28;20048;-75
2022/04/08 10:26:56;;;;;;;1.92;0.73;;;10.30;99.90;;;;;;5089580;28;20132;-74
2022/04/08 10:29:23;;;;;;;2.85;1.00;;;10.30;99.90;;;;;;5086478;28;20028;-75
2022/04/08 10:32:00;;;;;;;6.40;1.40;;;10.50;99.90;;;;;;5089486;28;20044;-75
2022/04/08 10:34:26;;;;;;;4.57;1.38;;;10.60;99.90;;;;;;5076807;28;20047;-74
2022/04/08 10:36:52;;;;;;;3.72;1.00;;;10.70;99.90;;;;;;5092880;28;20043;-75
2022/04/08 10:39:23;;;;;;;1.58;0.60;;;10.70;99.90;;;;;;5076661;28;20074;-74
2022/04/08 10:41:53;;;;;;;2.08;0.60;;;10.70;99.90;;;;;;5089616;28;20101;-75
2022/04/08 10:44:37;;;;;;;3.63;1.00;;;10.60;99.90;;;;;;5080818;28;20428;-75
2022/04/08 10:47:16;;;;;;;3.90;0.90;;;10.40;99.90;;;;;;5073863;28;20119;-75
2022/04/08 10:49:53;;;;;;;3.53;0.90;;;10.40;99.90;;;;;;5093534;28;20070;-75
2022/04/08 10:52:26;;;;;;;3.33;0.98;;;10.40;99.90;;;;;;5084885;22;20102;-77
2022/04/08 10:55:10;;;;;;;4.28;1.00;;;10.40;99.90;;;;;;5071982;28;20061;-76
2022/04/08 10:57:37;;;;;;;4.43;0.98;;;10.50;99.90;;;;;;5047049;28;20029;-76
2022/04/08 11:00:14;;;;;;;5.75;1.42;;;10.40;99.90;;;;;;5070012;28;20063;-77
2022/04/08 11:02:43;;;;;;;7.90;1.65;;;10.40;99.90;;;;;;5073033;28;20078;-76
2022/04/08 11:05:10;;;;;;;7.10;2.15;;;10.50;99.90;;;;;;5073127;28;20044;-76
2022/04/08 11:07:47;;;;;;;7.03;1.63;;;10.70;99.90;;;;;;5065698;28;20127;-76
2022/04/08 11:10:20;;;;;;;5.53;1.42;;;11.00;99.90;;;;;;5066751;28;20075;-76
2022/04/08 11:12:51;;;;;;;5.13;1.20;;;11.40;99.90;;;;;;5072926;28;20482;-76
2022/04/08 11:15:18;;;;;;;6.53;1.65;;;11.40;99.90;;;;;;5069693;28;20049;-76
2022/04/08 11:17:46;;;;;;;4.95;1.08;;;11.40;99.90;;;;;;5068520;28;20528;-76
2022/04/08 11:20:15;;;;;;;3.75;1.17;;;11.60;99.90;;;;;;5072925;28;20049;-76
2022/04/08 11:22:42;;;;;;;6.60;1.83;;;11.90;99.90;;;;;;5072566;28;20543;-76
2022/04/08 11:25:20;;;;;;;4.00;1.00;;;11.90;99.90;;;;;;5072830;28;20131;-76
2022/04/08 11:27:56;;;;;;;3.83;1.17;;;11.90;99.90;;;;;;5054681;28;20052;-77
2022/04/08 11:30:23;;;;;;;4.30;1.13;;;11.80;99.90;;;;;;5072762;28;20049;-76
2022/04/08 11:32:49;;;;;;;2.90;0.90;;;11.70;99.90;;;;;;5059285;28;20112;-76
2022/04/08 11:35:14;;;;;;;3.83;1.10;;;11.40;99.80;;;;;;5072566;28;20048;-76
2022/04/08 11:37:40;;;;;;;5.30;1.20;;;11.10;99.90;;;;;;5072373;28;20363;-76
2022/04/08 11:40:07;;;;;;;3.67;1.23;;;10.90;99.90;;;;;;5071934;28;20059;-76
2022/04/08 11:42:33;;;;;;;3.95;1.08;;;10.60;99.90;;;;;;5053374;28;20078;-76
2022/04/08 11:44:59;;;;;;;4.82;1.05;;;10.40;99.90;;;;;;5070384;28;20036;-76
2022/04/08 11:47:32;;;;;;;3.55;1.00;;;10.30;99.90;;;;;;5072280;28;20044;-76
2022/04/08 11:50:06;;;;;;;3.15;0.98;;;10.40;99.90;;;;;;5072563;28;20378;-76
2022/04/08 11:52:32;;;;;;;1.33;0.57;;;10.30;99.90;;;;;;5071967;28;20075;-76
2022/04/08 11:55:09;;;;;;;4.82;1.00;;;10.30;99.90;;;;;;5069977;28;20550;-76
2022/04/08 11:57:38;;;;;;;3.95;0.93;;;10.20;99.90;;;;;;5061639;28;20036;-76
2022/04/08 12:00:08;;;;;;;5.80;1.00;;;10.10;99.90;;;;;;5068449;28;20048;-76
2022/04/08 12:02:35;;;;;;;4.43;1.05;;;10.00;99.90;;;;;;5065172;28;20036;-76
2022/04/08 12:05:01;;;;;;;3.03;0.93;;;10.00;99.90;;;;;;5055433;28;20059;-76
2022/04/08 12:07:28;;;;;;;3.60;0.82;;;10.10;99.90;;;;;;5071744;28;20036;-76
2022/04/08 12:09:55;;;;;;;4.57;0.90;;;10.20;99.90;;;;;;5071501;28;20050;-76
2022/04/08 12:12:29;;;;;;;3.00;0.70;;;10.40;99.90;;;;;;5055051;28;20047;-76
2022/04/08 12:14:55;;;;;;;4.57;0.90;;;10.60;99.90;;;;;;5054587;28;20044;-76
2022/04/08 12:17:22;;;;;;;3.83;1.20;;;10.80;99.90;;;;;;5064815;28;20102;-76
2022/04/08 12:19:54;;;;;;;4.97;0.98;;;10.90;99.90;;;;;;5070383;28;20024;-76
2022/04/08 12:22:21;;;;;;;;;;;11.10;99.90;;;;;;5055283;28;20047;-76
2022/04/08 12:24:48;;;;;;;6.18;0.98;;;11.00;99.80;;;;;;5071973;28;20499;-76
2022/04/08 12:27:17;;;;;;;3.40;0.75;;;11.00;99.90;;;;;;5054504;28;20044;-76
2022/04/08 12:29:45;;;;;;;3.53;1.00;;;11.20;99.90;;;;;;5071924;28;20052;-76
2022/04/08 12:32:15;;;;;;;2.83;0.80;;;11.20;99.90;;;;;;5071248;28;20403;-76
2022/04/08 12:34:42;;;;;;;2.88;1.00;;;11.30;99.80;;;;;;5071526;28;20125;-76
2022/04/08 12:37:08;;;;;;;6.25;1.65;;;11.30;99.90;;;;;;5069522;28;20493;-76
2022/04/08 12:39:34;;;;;;;3.28;0.90;;;11.50;99.90;;;;;;5067542;28;20040;-76
2022/04/08 12:42:01;;;;;;;4.72;1.00;;;11.60;99.90;;;;;;5057357;28;20040;-76
2022/04/08 12:44:26;;;;;;;3.80;0.80;;;11.70;99.40;;;;;;5056413;28;20037;-76
2022/04/08 12:46:54;;;;;;;4.72;1.20;;;11.70;99.90;;;;;;5060324;28;20121;-76
2022/04/08 12:49:20;;;;;;;3.50;0.98;;;11.50;99.90;;;;;;5062655;28;20115;-76
2022/04/08 12:51:46;;;;;;;1.52;0.70;;;11.50;99.90;;;;;;5049417;28;20135;-76